Aérodrome :
LOGIN :

S'inscrire | Disclaimer

   EN    FR    IT 

 










Légende :    VFR   VFR Marginal   IFR   IFR Intensif   IFR Très Intensif
Visi : 
Plafond : 
>= 8 km
>= 3000ft
5 à 8 km
1000 à 3000 ft
1500m à 5 km
500 à 1000 ft
800 à 1500m
200 à 500 ft
< 800m
< 200 ft
Symboles :   Orages  Brouillard  Fortes neiges  Fortes précipitations  Vent > 20 kt
SIGMETs :   Divers  Orages  Givrage  Turbulence  Onde Orograph.  Cendres Volcan.







- Altitude de l'aérodrome : 250 ft
- Code IATA : AGA


GMAD - Al Massira Int.

DERNIER METAR :
  • 240900Z 00000KT 6000 SCT010 BKN016 20/18 Q1012 NOSIG

METARs EXPIRÉS :
  • 240830Z 30004KT 260V320 6000 SCT010 BKN016 20/18 Q1013 NOSIG
  • 240800Z 27007KT 6000 SCT010 BKN016 20/18 Q1013 NOSIG
  • 240730Z 26009KT 6000 SCT010 BKN016 20/18 Q1012 NOSIG
  • 240700Z 25008KT 6000 SCT010 BKN016 21/18 Q1012 NOSIG
  • 240630Z 26005KT 6000 SCT010 BKN016 20/19 Q1011 NOSIG

TAF TAF GMAD
Valide du 24 à 06h jusqu'au 25 à 12h UTC


240500Z 2406/2512 18006KT 8000 SCT010 BKN016
BECMG 2412/2414 27012KT CAVOK
Pas de NOTAMs connus pour ce terrain.



MET'MAP, la Météo Aéronautique d'un coup d'oeil ! - Copyright ORBIFLY Décembre 2007 - Disclaimer

ORBIFLY MET'MAP TEAM :

Programmation & Développement : Alexandra Zaïnal
Conception & Développement : Baudouin d'Aumeries
Co-Programmation & Développement : Marc-Olivier Méhu
Soutien technique & logistique : Manuel Goepfert

Contact : metmap@orbifly.com




SOURCES & CREDITS :

   NOAA